x

South Santa Rosa Is. Ca (46069) Wave Buoy

4:50 - Sat 28th Mar 2015 All times are PDT. -7 hours from GMT.

  • Sig Wave height 7.9ft
  • Peak Period 14s
  • Average Period 6s
  • Wind
    22mph, 27mph gusts
  • Sea Temp 59°f
  • Aire Temp 57°f
  • Sea Pressure 1016.7mb
  • South Santa Rosa Is. Ca
  • South Santa Rosa Is. Ca

More Historic Weather Station data

Upgrade to MSW Pro to gain access to the past 30 days of data for over 8000 Wavebouys and Weather Stations around the globe.

Join Pro

Comparision Forecast

View Surf forecast
   
sáb 03/28 4:50 8ft 14s 6s 22 27 mph 1016.7mb 59f 57f
3:50 8ft 13s 6s 22 27 mph 1016.8mb 59f 56f
2:50 9ft 14s 7s 25 29 mph 1017.2mb 59f 56f
1:50 8ft 7s 6s 27 31 mph 1017.6mb 59f 56f
12:50 8ft 11s 6s 25 31 mph 1017.8mb 59f 56f
vie 03/27 11:50 7.5ft 7s 6s 22 29 mph 1018mb 59f 58f
10:50 7.5ft 11s 6s 25 29 mph 1017.8mb 59f 56f
9:50 7ft 11s 6s 25 31 mph 1017.6mb 59f 56f
8:50 7ft 11s 6s 25 29 mph 1017.3mb 59f 56f
7:50 7ft 11s 6s 25 29 mph 1016.8mb 60f 57f
6:50 7ft 16s 6s 25 29 mph 1016.5mb 60f 57f
5:50 6.5ft 15s 5s 25 29 mph 1016.6mb 60f 58f
4:50 6ft 11s 5s 25 29 mph 1016.8mb 60f 58f
3:50 6ft 12s 5s 22 27 mph 1017.1mb 60f 58f
2:50 6ft 15s 6s 20 27 mph 1017.7mb 60f 57f
1:50 6.5ft 11s 6s 20 25 mph 1018.4mb 60f 57f
12:50 6ft 15s 6s 20 22 mph 1018.9mb 59f 57f
11:50 6ft 12s 6s 18 22 mph 1019.1mb 59f 57f
10:50 5.5ft 11s 7s 13 18 mph 1019mb 60f 56f
9:50 5ft 16s 6s 13 18 mph 1018.7mb 60f 56f
8:50 5ft 12s 6s 13 18 mph 1017.9mb 60f 56f
7:50 5ft 11s 6s 16 18 mph 1017.5mb 60f 56f
6:50 5ft 11s 6s 18 20 mph 1016.7mb 60f 56f
5:50 5ft 11s 6s 18 20 mph 1016.3mb 59f 57f
4:50 5ft 11s 6s 16 20 mph 1016.4mb 59f 57f
3:50 5ft 15s 6s 16 20 mph 1016.4mb 60f 58f
2:50 5ft 12s 6s 18 22 mph 1016.5mb 60f 58f
1:50 5ft 11s 6s 20 25 mph 1016.8mb 60f 59f
12:50 4.5ft 11s 7s 16 18 mph 1017.1mb 61f 61f
jue 03/26 11:50 5ft 11s 7s 13 16 mph 1017.1mb 61f 61f
10:50 5ft 11s 8s 11 16 mph 1017.2mb 61f 61f
9:50 5ft 11s 7s 11 13 mph 1016.9mb 61f 61f
8:50 5ft 16s 8s 13 16 mph 1016.6mb 61f 61f
7:50 4.5ft 16s 7s 13 16 mph 1016.3mb 62f 61f
6:50 5ft 11s 8s 16 18 mph 1015.9mb 62f 62f
5:50 5ft 11s 7s 11
mph
1016.1mb 63f 63f
4:50 5ft 11s 7s 9 11 mph 1016.3mb 64f 64f
3:50 5ft 11s 7s 7 9 mph 1016.6mb 65f 65f
2:50 5.5ft 10s 7s 4 7 mph 1017.1mb 63f 65f
1:50 5ft 8s 7s 4 7 mph 1017.9mb 61f 66f
12:50 6ft 11s 7s 2
mph
1018.1mb 61f 65f
11:50 6ft 11s 7s 2 4 mph 1018.4mb 60f 64f
10:50 6ft 11s 7s 2 4 mph 1018.4mb 59f 63f
9:50 6ft 11s 7s  -  2 mph 1018.4mb 59f 62f
8:50 5.5ft 8s 7s 2
mph
1017.9mb 59f 61f
7:50 5.5ft 11s 7s 2
mph
1017.5mb 59f 59f
6:50 5.5ft 12s 8s 2 4 mph 1016.8mb 59f 59f
5:50 6.5ft 11s 8s 4 9 mph 1016.2mb 59f 60f
4:50 6.5ft 11s 7s 7 9 mph 1016mb 59f 59f
3:50 6ft 11s 7s 9 11 mph 1016mb 59f 59f
2:50 6.5ft 12s 7s 11 13 mph 1015.9mb 58f 59f
1:50 7ft 12s 7s 16 18 mph 1016.1mb 58f 58f
12:50 7ft 12s 6s 18 20 mph 1016.4mb 58f 58f
mié 03/25 11:50 7ft 11s 6s 18 22 mph 1016.8mb 58f 58f
10:50 6.5ft 12s 6s 18 22 mph 1017.2mb 58f 59f
9:50 7ft 12s 6s 20 22 mph 1017.2mb 58f 59f
8:50 6.5ft 12s 6s 20 22 mph 1017mb 58f 59f
7:50 6.5ft 12s 6s 20 25 mph 1016.5mb 58f 59f
6:50 7ft 11s 6s 18 22 mph 1016.6mb 59f 59f
5:50 7ft 12s 6s 20 22 mph 1016.3mb 59f 60f
4:50 7ft 11s 6s 20 25 mph 1016.5mb 59f 60f
3:50 7ft 12s 6s 20 25 mph 1017.1mb 59f 60f
2:50 7.5ft 11s 6s 20 25 mph 1017.5mb 59f 60f
1:50 7.5ft 12s 6s 20 25 mph 1018mb 58f 60f
12:50 8ft 12s 6s 20 27 mph 1018.5mb 58f 60f
11:50 7.5ft 11s 6s 18 22 mph 1018.8mb 58f 59f
10:50 8.5ft 11s 6s 18 22 mph 1018.9mb 58f 59f
9:50 8.5ft 8s 6s 22 25 mph 1018.5mb 58f 59f
8:50 8ft 8s 6s 20 25 mph 1017.8mb 58f 59f
7:50 8ft 8s 6s 20 25 mph 1017.5mb 58f 59f
6:50 9ft 8s 6s 22 29 mph 1016.7mb 58f 59f
5:50 8ft 8s 6s 27 31 mph 1016.1mb 58f 60f
4:50 8ft 8s 6s 27 31 mph 1015.9mb 58f 59f
3:50 9ft 8s 6s 27 34 mph 1015.8mb 58f 59f
2:50 9ft 8s 6s 25 31 mph 1016.8mb 58f 58f
1:50 9.5ft 8s 6s 29 34 mph 1017.1mb 58f 58f
12:50 9.5ft 7s 6s 29 36 mph 1017.3mb 58f 58f
mar 03/24 11:50 10ft 7s 6s 31 38 mph 1017.1mb 59f 59f
10:50 9.5ft 7s 6s 31 38 mph 1017.8mb 59f 59f
9:50 10.5ft 8s 6s 29 36 mph 1018.2mb 59f 59f
8:50 10ft 8s 6s 29 38 mph 1018mb 59f 59f
7:50 11ft 8s 6s 34 45 mph 1016.9mb 59f 59f
6:50 10.5ft 7s 6s 34 40 mph 1016.6mb 59f 59f
5:50 10ft 12s 6s 34 40 mph 1016.3mb 59f 60f
4:50 10ft 12s 6s 34 43 mph 1016mb 60f 60f
3:50 10ft 7s 6s 27 31 mph 1017.3mb 59f 60f
2:50 8.5ft 13s 6s 27 34 mph 1017.8mb 59f 60f
1:50 9ft 7s 6s 29 36 mph 1018.3mb 59f 60f